sensor_id;sensor_type;location;lat;lon;timestamp;temperature;humidity
18450;DHT22;9354;50.194;7.690;2023-05-07T00:00:25;14.30;99.90
18450;DHT22;9354;50.194;7.690;2023-05-07T00:02:52;14.30;99.90
18450;DHT22;9354;50.194;7.690;2023-05-07T00:05:20;14.30;99.90
18450;DHT22;9354;50.194;7.690;2023-05-07T00:07:49;14.40;99.90
18450;DHT22;9354;50.194;7.690;2023-05-07T00:10:16;14.40;99.90
18450;DHT22;9354;50.194;7.690;2023-05-07T00:12:43;14.40;99.90
18450;DHT22;9354;50.194;7.690;2023-05-07T00:15:11;14.40;99.90
18450;DHT22;9354;50.194;7.690;2023-05-07T00:17:38;14.50;99.90
18450;DHT22;9354;50.194;7.690;2023-05-07T00:20:07;14.50;99.90
18450;DHT22;9354;50.194;7.690;2023-05-07T00:22:34;14.40;99.90
18450;DHT22;9354;50.194;7.690;2023-05-07T00:25:04;14.40;99.90
18450;DHT22;9354;50.194;7.690;2023-05-07T00:27:32;14.30;99.90
18450;DHT22;9354;50.194;7.690;2023-05-07T00:29:59;14.30;99.90
18450;DHT22;9354;50.194;7.690;2023-05-07T00:32:26;14.20;99.90
18450;DHT22;9354;50.194;7.690;2023-05-07T00:34:54;14.10;99.90
18450;DHT22;9354;50.194;7.690;2023-05-07T00:37:21;14.00;99.90
18450;DHT22;9354;50.194;7.690;2023-05-07T00:39:48;14.00;99.90
18450;DHT22;9354;50.194;7.690;2023-05-07T00:42:17;13.90;99.90
18450;DHT22;9354;50.194;7.690;2023-05-07T00:44:45;13.80;99.90
18450;DHT22;9354;50.194;7.690;2023-05-07T00:47:13;13.80;99.90
18450;DHT22;9354;50.194;7.690;2023-05-07T00:49:42;13.80;99.90
18450;DHT22;9354;50.194;7.690;2023-05-07T00:52:12;13.80;99.90
18450;DHT22;9354;50.194;7.690;2023-05-07T00:54:41;13.90;99.90
18450;DHT22;9354;50.194;7.690;2023-05-07T00:57:09;13.90;99.90
18450;DHT22;9354;50.194;7.690;2023-05-07T00:59:38;13.90;99.90
18450;DHT22;9354;50.194;7.690;2023-05-07T01:02:06;14.00;99.90
18450;DHT22;9354;50.194;7.690;2023-05-07T01:04:34;14.00;99.90
18450;DHT22;9354;50.194;7.690;2023-05-07T01:07:02;14.00;99.90
18450;DHT22;9354;50.194;7.690;2023-05-07T01:09:31;14.00;99.90
18450;DHT22;9354;50.194;7.690;2023-05-07T01:11:59;14.10;99.90
18450;DHT22;9354;50.194;7.690;2023-05-07T01:14:26;14.10;99.90
18450;DHT22;9354;50.194;7.690;2023-05-07T01:16:57;14.10;99.90
18450;DHT22;9354;50.194;7.690;2023-05-07T01:19:25;14.10;99.90
18450;DHT22;9354;50.194;7.690;2023-05-07T01:22:00;14.10;99.90
18450;DHT22;9354;50.194;7.690;2023-05-07T01:24:31;14.10;99.90
18450;DHT22;9354;50.194;7.690;2023-05-07T01:26:58;14.10;99.90
18450;DHT22;9354;50.194;7.690;2023-05-07T01:29:27;14.00;99.90
18450;DHT22;9354;50.194;7.690;2023-05-07T01:31:57;14.10;99.90
18450;DHT22;9354;50.194;7.690;2023-05-07T01:34:27;14.10;99.90
18450;DHT22;9354;50.194;7.690;2023-05-07T01:36:55;14.10;99.90
18450;DHT22;9354;50.194;7.690;2023-05-07T01:39:25;14.10;99.90
18450;DHT22;9354;50.194;7.690;2023-05-07T01:41:55;14.00;99.90
18450;DHT22;9354;50.194;7.690;2023-05-07T01:44:23;14.10;99.90
18450;DHT22;9354;50.194;7.690;2023-05-07T01:46:50;14.10;99.90
18450;DHT22;9354;50.194;7.690;2023-05-07T01:49:18;14.10;99.90
18450;DHT22;9354;50.194;7.690;2023-05-07T01:51:45;14.10;99.90
18450;DHT22;9354;50.194;7.690;2023-05-07T01:54:13;14.10;99.90
18450;DHT22;9354;50.194;7.690;2023-05-07T01:56:41;14.20;99.90
18450;DHT22;9354;50.194;7.690;2023-05-07T01:59:10;14.10;99.90
18450;DHT22;9354;50.194;7.690;2023-05-07T02:01:39;14.10;99.90
18450;DHT22;9354;50.194;7.690;2023-05-07T02:04:06;14.20;99.90
18450;DHT22;9354;50.194;7.690;2023-05-07T02:06:34;14.20;99.90
18450;DHT22;9354;50.194;7.690;2023-05-07T02:09:01;14.20;99.90
18450;DHT22;9354;50.194;7.690;2023-05-07T02:11:29;14.20;99.90
18450;DHT22;9354;50.194;7.690;2023-05-07T02:13:56;14.20;99.90
18450;DHT22;9354;50.194;7.690;2023-05-07T02:16:25;14.20;99.90
18450;DHT22;9354;50.194;7.690;2023-05-07T02:18:52;14.20;99.90
18450;DHT22;9354;50.194;7.690;2023-05-07T02:21:20;14.20;99.90
18450;DHT22;9354;50.194;7.690;2023-05-07T02:23:47;14.20;99.90
18450;DHT22;9354;50.194;7.690;2023-05-07T02:26:14;14.20;99.90
18450;DHT22;9354;50.194;7.690;2023-05-07T02:28:42;14.30;99.90
18450;DHT22;9354;50.194;7.690;2023-05-07T02:31:09;14.30;99.90
18450;DHT22;9354;50.194;7.690;2023-05-07T02:33:38;14.20;99.90
18450;DHT22;9354;50.194;7.690;2023-05-07T02:36:06;14.20;99.90
18450;DHT22;9354;50.194;7.690;2023-05-07T02:38:34;14.20;99.90
18450;DHT22;9354;50.194;7.690;2023-05-07T02:41:01;14.20;99.90
18450;DHT22;9354;50.194;7.690;2023-05-07T02:43:29;14.20;99.90
18450;DHT22;9354;50.194;7.690;2023-05-07T02:46:03;14.20;99.90
18450;DHT22;9354;50.194;7.690;2023-05-07T02:48:31;14.20;99.90
18450;DHT22;9354;50.194;7.690;2023-05-07T02:51:01;14.20;99.90
18450;DHT22;9354;50.194;7.690;2023-05-07T02:53:28;14.10;99.90
18450;DHT22;9354;50.194;7.690;2023-05-07T02:55:56;14.00;99.90
18450;DHT22;9354;50.194;7.690;2023-05-07T02:58:24;14.00;99.90
18450;DHT22;9354;50.194;7.690;2023-05-07T03:00:52;13.90;99.90
18450;DHT22;9354;50.194;7.690;2023-05-07T03:03:20;13.90;99.90
18450;DHT22;9354;50.194;7.690;2023-05-07T03:05:48;13.80;99.90
18450;DHT22;9354;50.194;7.690;2023-05-07T03:08:17;13.90;99.90
18450;DHT22;9354;50.194;7.690;2023-05-07T03:10:44;13.90;99.90
18450;DHT22;9354;50.194;7.690;2023-05-07T03:13:11;13.90;99.90
18450;DHT22;9354;50.194;7.690;2023-05-07T03:15:39;13.90;99.90
18450;DHT22;9354;50.194;7.690;2023-05-07T03:18:06;13.90;99.90
18450;DHT22;9354;50.194;7.690;2023-05-07T03:20:33;13.80;99.90
18450;DHT22;9354;50.194;7.690;2023-05-07T03:23:02;13.80;99.90
18450;DHT22;9354;50.194;7.690;2023-05-07T03:25:31;13.80;99.90
18450;DHT22;9354;50.194;7.690;2023-05-07T03:27:59;13.80;99.90
18450;DHT22;9354;50.194;7.690;2023-05-07T03:30:26;13.80;99.90
18450;DHT22;9354;50.194;7.690;2023-05-07T03:32:54;13.80;99.90
18450;DHT22;9354;50.194;7.690;2023-05-07T03:35:21;13.90;99.90
18450;DHT22;9354;50.194;7.690;2023-05-07T03:37:49;13.90;99.90
18450;DHT22;9354;50.194;7.690;2023-05-07T03:40:16;13.90;99.90
18450;DHT22;9354;50.194;7.690;2023-05-07T03:42:45;14.00;99.90
18450;DHT22;9354;50.194;7.690;2023-05-07T03:45:12;14.00;99.90
18450;DHT22;9354;50.194;7.690;2023-05-07T03:47:40;14.00;99.90
18450;DHT22;9354;50.194;7.690;2023-05-07T03:50:08;13.90;99.90
18450;DHT22;9354;50.194;7.690;2023-05-07T03:52:36;13.90;99.90
18450;DHT22;9354;50.194;7.690;2023-05-07T03:55:04;13.90;99.90
18450;DHT22;9354;50.194;7.690;2023-05-07T03:57:31;13.90;99.90
18450;DHT22;9354;50.194;7.690;2023-05-07T04:00:00;13.90;99.90
18450;DHT22;9354;50.194;7.690;2023-05-07T04:02:28;13.90;99.90
18450;DHT22;9354;50.194;7.690;2023-05-07T04:04:55;13.90;99.90
18450;DHT22;9354;50.194;7.690;2023-05-07T04:07:22;13.90;99.90
18450;DHT22;9354;50.194;7.690;2023-05-07T04:09:50;13.90;99.90
18450;DHT22;9354;50.194;7.690;2023-05-07T04:12:17;13.90;99.90
18450;DHT22;9354;50.194;7.690;2023-05-07T04:14:45;13.90;99.90
18450;DHT22;9354;50.194;7.690;2023-05-07T04:17:13;13.90;99.90
18450;DHT22;9354;50.194;7.690;2023-05-07T04:19:41;13.90;99.90
18450;DHT22;9354;50.194;7.690;2023-05-07T04:22:11;13.90;99.90
18450;DHT22;9354;50.194;7.690;2023-05-07T04:24:38;14.00;99.90
18450;DHT22;9354;50.194;7.690;2023-05-07T04:27:06;14.00;99.90
18450;DHT22;9354;50.194;7.690;2023-05-07T04:29:33;14.00;99.90
18450;DHT22;9354;50.194;7.690;2023-05-07T04:32:01;14.10;99.90
18450;DHT22;9354;50.194;7.690;2023-05-07T04:34:29;14.10;99.90
18450;DHT22;9354;50.194;7.690;2023-05-07T04:36:59;14.00;99.90
18450;DHT22;9354;50.194;7.690;2023-05-07T04:39:26;14.00;99.90
18450;DHT22;9354;50.194;7.690;2023-05-07T04:41:53;13.90;99.90
18450;DHT22;9354;50.194;7.690;2023-05-07T04:44:21;13.90;99.90
18450;DHT22;9354;50.194;7.690;2023-05-07T04:46:49;13.90;99.90
18450;DHT22;9354;50.194;7.690;2023-05-07T04:49:16;13.90;99.90
18450;DHT22;9354;50.194;7.690;2023-05-07T04:51:45;13.90;99.90
18450;DHT22;9354;50.194;7.690;2023-05-07T04:54:12;13.90;99.90
18450;DHT22;9354;50.194;7.690;2023-05-07T04:56:40;14.00;99.90
18450;DHT22;9354;50.194;7.690;2023-05-07T04:59:07;14.00;99.90
18450;DHT22;9354;50.194;7.690;2023-05-07T05:01:34;14.10;99.90
18450;DHT22;9354;50.194;7.690;2023-05-07T05:04:02;14.10;99.90
18450;DHT22;9354;50.194;7.690;2023-05-07T05:06:29;14.10;99.90
18450;DHT22;9354;50.194;7.690;2023-05-07T05:08:58;14.20;99.90
18450;DHT22;9354;50.194;7.690;2023-05-07T05:11:25;14.20;99.90
18450;DHT22;9354;50.194;7.690;2023-05-07T05:13:53;14.20;99.90
18450;DHT22;9354;50.194;7.690;2023-05-07T05:16:20;14.20;99.90
18450;DHT22;9354;50.194;7.690;2023-05-07T05:18:47;14.20;99.90
18450;DHT22;9354;50.194;7.690;2023-05-07T05:21:15;14.20;99.90
18450;DHT22;9354;50.194;7.690;2023-05-07T05:23:42;14.20;99.90
18450;DHT22;9354;50.194;7.690;2023-05-07T05:26:11;14.20;99.90
18450;DHT22;9354;50.194;7.690;2023-05-07T05:28:38;14.20;99.90
18450;DHT22;9354;50.194;7.690;2023-05-07T05:31:06;14.30;99.90
18450;DHT22;9354;50.194;7.690;2023-05-07T05:33:33;14.30;99.90
18450;DHT22;9354;50.194;7.690;2023-05-07T05:36:01;14.30;99.90
18450;DHT22;9354;50.194;7.690;2023-05-07T05:38:28;14.30;99.90
18450;DHT22;9354;50.194;7.690;2023-05-07T05:40:56;14.40;99.90
18450;DHT22;9354;50.194;7.690;2023-05-07T05:43:24;14.50;99.90
18450;DHT22;9354;50.194;7.690;2023-05-07T05:45:52;14.50;99.90
18450;DHT22;9354;50.194;7.690;2023-05-07T05:48:19;14.60;99.90
18450;DHT22;9354;50.194;7.690;2023-05-07T05:50:46;14.60;99.90
18450;DHT22;9354;50.194;7.690;2023-05-07T05:53:14;14.60;99.90
18450;DHT22;9354;50.194;7.690;2023-05-07T05:55:41;14.60;99.90
18450;DHT22;9354;50.194;7.690;2023-05-07T05:58:09;14.70;99.90
18450;DHT22;9354;50.194;7.690;2023-05-07T06:00:38;14.70;99.90
18450;DHT22;9354;50.194;7.690;2023-05-07T06:03:05;14.70;99.90
18450;DHT22;9354;50.194;7.690;2023-05-07T06:05:33;14.70;99.90
18450;DHT22;9354;50.194;7.690;2023-05-07T06:08:00;14.70;99.90
18450;DHT22;9354;50.194;7.690;2023-05-07T06:10:28;14.70;99.90
18450;DHT22;9354;50.194;7.690;2023-05-07T06:12:56;14.70;99.90
18450;DHT22;9354;50.194;7.690;2023-05-07T06:15:23;14.80;99.90
18450;DHT22;9354;50.194;7.690;2023-05-07T06:17:52;14.80;99.90
18450;DHT22;9354;50.194;7.690;2023-05-07T06:20:21;14.90;99.90
18450;DHT22;9354;50.194;7.690;2023-05-07T06:22:49;14.90;99.90
18450;DHT22;9354;50.194;7.690;2023-05-07T06:25:17;15.00;99.90
18450;DHT22;9354;50.194;7.690;2023-05-07T06:27:45;15.10;99.90
18450;DHT22;9354;50.194;7.690;2023-05-07T06:30:12;15.10;99.90
18450;DHT22;9354;50.194;7.690;2023-05-07T06:32:40;15.20;99.90
18450;DHT22;9354;50.194;7.690;2023-05-07T06:35:09;15.30;99.90
18450;DHT22;9354;50.194;7.690;2023-05-07T06:37:38;15.30;99.90
18450;DHT22;9354;50.194;7.690;2023-05-07T06:40:06;15.40;99.90
18450;DHT22;9354;50.194;7.690;2023-05-07T06:42:35;15.40;99.90
18450;DHT22;9354;50.194;7.690;2023-05-07T06:45:02;15.50;99.90
18450;DHT22;9354;50.194;7.690;2023-05-07T06:47:30;15.60;99.90
18450;DHT22;9354;50.194;7.690;2023-05-07T06:49:57;15.70;99.90
18450;DHT22;9354;50.194;7.690;2023-05-07T06:52:26;15.80;99.90
18450;DHT22;9354;50.194;7.690;2023-05-07T06:54:53;15.90;99.90
18450;DHT22;9354;50.194;7.690;2023-05-07T06:57:21;15.90;99.90
18450;DHT22;9354;50.194;7.690;2023-05-07T06:59:48;16.00;99.90
18450;DHT22;9354;50.194;7.690;2023-05-07T07:02:15;16.10;99.90
18450;DHT22;9354;50.194;7.690;2023-05-07T07:04:43;16.10;99.90
18450;DHT22;9354;50.194;7.690;2023-05-07T07:07:11;16.10;99.90
18450;DHT22;9354;50.194;7.690;2023-05-07T07:09:39;16.20;99.90
18450;DHT22;9354;50.194;7.690;2023-05-07T07:12:07;16.20;99.90
18450;DHT22;9354;50.194;7.690;2023-05-07T07:14:34;16.10;99.90
18450;DHT22;9354;50.194;7.690;2023-05-07T07:17:01;16.10;99.90
18450;DHT22;9354;50.194;7.690;2023-05-07T07:19:31;16.10;99.90
18450;DHT22;9354;50.194;7.690;2023-05-07T07:21:58;16.20;99.90
18450;DHT22;9354;50.194;7.690;2023-05-07T07:24:25;16.30;99.90
18450;DHT22;9354;50.194;7.690;2023-05-07T07:26:54;16.30;99.90
18450;DHT22;9354;50.194;7.690;2023-05-07T07:29:22;16.50;99.90
18450;DHT22;9354;50.194;7.690;2023-05-07T07:31:52;16.50;99.90
18450;DHT22;9354;50.194;7.690;2023-05-07T07:34:20;16.60;99.90
18450;DHT22;9354;50.194;7.690;2023-05-07T07:36:47;16.60;99.90
18450;DHT22;9354;50.194;7.690;2023-05-07T07:39:14;16.60;99.90
18450;DHT22;9354;50.194;7.690;2023-05-07T07:41:42;16.70;99.90
18450;DHT22;9354;50.194;7.690;2023-05-07T07:44:10;16.80;99.90
18450;DHT22;9354;50.194;7.690;2023-05-07T07:46:39;16.80;99.90
18450;DHT22;9354;50.194;7.690;2023-05-07T07:49:06;16.90;99.90
18450;DHT22;9354;50.194;7.690;2023-05-07T07:51:33;17.00;99.90
18450;DHT22;9354;50.194;7.690;2023-05-07T07:54:01;17.00;99.90
18450;DHT22;9354;50.194;7.690;2023-05-07T07:56:29;17.00;99.90
18450;DHT22;9354;50.194;7.690;2023-05-07T07:58:56;17.10;99.90
18450;DHT22;9354;50.194;7.690;2023-05-07T08:01:25;17.10;99.90
18450;DHT22;9354;50.194;7.690;2023-05-07T08:03:53;17.20;99.90
18450;DHT22;9354;50.194;7.690;2023-05-07T08:06:20;17.30;99.90
18450;DHT22;9354;50.194;7.690;2023-05-07T08:08:48;17.40;99.90
18450;DHT22;9354;50.194;7.690;2023-05-07T08:11:15;17.50;99.90
18450;DHT22;9354;50.194;7.690;2023-05-07T08:13:43;17.60;99.90
18450;DHT22;9354;50.194;7.690;2023-05-07T08:16:11;17.70;99.90
18450;DHT22;9354;50.194;7.690;2023-05-07T08:18:39;17.70;99.90
18450;DHT22;9354;50.194;7.690;2023-05-07T08:21:07;17.90;99.90
18450;DHT22;9354;50.194;7.690;2023-05-07T08:23:34;18.10;99.90
18450;DHT22;9354;50.194;7.690;2023-05-07T08:26:02;18.20;99.90
18450;DHT22;9354;50.194;7.690;2023-05-07T08:28:29;18.30;99.90
18450;DHT22;9354;50.194;7.690;2023-05-07T08:30:57;18.40;99.90
18450;DHT22;9354;50.194;7.690;2023-05-07T08:33:26;18.40;99.90
18450;DHT22;9354;50.194;7.690;2023-05-07T08:35:55;18.40;99.90
18450;DHT22;9354;50.194;7.690;2023-05-07T08:38:22;18.50;99.90
18450;DHT22;9354;50.194;7.690;2023-05-07T08:40:50;18.60;99.90
18450;DHT22;9354;50.194;7.690;2023-05-07T08:43:18;18.80;99.90
18450;DHT22;9354;50.194;7.690;2023-05-07T08:45:49;18.80;99.90
18450;DHT22;9354;50.194;7.690;2023-05-07T08:48:23;18.90;99.90
18450;DHT22;9354;50.194;7.690;2023-05-07T08:50:52;18.90;99.90
18450;DHT22;9354;50.194;7.690;2023-05-07T08:53:21;18.90;99.90
18450;DHT22;9354;50.194;7.690;2023-05-07T08:55:49;18.90;99.90
18450;DHT22;9354;50.194;7.690;2023-05-07T08:58:16;19.00;99.90
18450;DHT22;9354;50.194;7.690;2023-05-07T09:00:44;19.10;99.90
18450;DHT22;9354;50.194;7.690;2023-05-07T09:03:11;19.30;99.90
18450;DHT22;9354;50.194;7.690;2023-05-07T09:05:40;19.50;99.90
18450;DHT22;9354;50.194;7.690;2023-05-07T09:08:07;19.70;99.90
18450;DHT22;9354;50.194;7.690;2023-05-07T09:10:36;19.80;99.90
18450;DHT22;9354;50.194;7.690;2023-05-07T09:13:04;20.00;99.90
18450;DHT22;9354;50.194;7.690;2023-05-07T09:15:31;20.30;99.90
18450;DHT22;9354;50.194;7.690;2023-05-07T09:18:00;20.50;99.90
18450;DHT22;9354;50.194;7.690;2023-05-07T09:20:30;20.70;99.90
18450;DHT22;9354;50.194;7.690;2023-05-07T09:22:58;20.80;99.90
18450;DHT22;9354;50.194;7.690;2023-05-07T09:25:28;20.90;99.90
18450;DHT22;9354;50.194;7.690;2023-05-07T09:27:59;21.00;99.90
18450;DHT22;9354;50.194;7.690;2023-05-07T09:30:28;21.00;99.90
18450;DHT22;9354;50.194;7.690;2023-05-07T09:32:57;21.20;99.90
18450;DHT22;9354;50.194;7.690;2023-05-07T09:35:25;21.40;99.90
18450;DHT22;9354;50.194;7.690;2023-05-07T09:37:53;21.50;99.90
18450;DHT22;9354;50.194;7.690;2023-05-07T09:40:22;21.60;99.90
18450;DHT22;9354;50.194;7.690;2023-05-07T09:42:50;21.70;99.90
18450;DHT22;9354;50.194;7.690;2023-05-07T09:45:24;21.80;99.90
18450;DHT22;9354;50.194;7.690;2023-05-07T09:47:55;21.70;99.90
18450;DHT22;9354;50.194;7.690;2023-05-07T09:50:26;21.90;99.90
18450;DHT22;9354;50.194;7.690;2023-05-07T09:52:55;22.10;99.90
18450;DHT22;9354;50.194;7.690;2023-05-07T09:55:23;22.20;99.90
18450;DHT22;9354;50.194;7.690;2023-05-07T09:57:51;22.30;99.90
18450;DHT22;9354;50.194;7.690;2023-05-07T10:00:22;22.30;99.90
18450;DHT22;9354;50.194;7.690;2023-05-07T10:02:51;22.30;99.90
18450;DHT22;9354;50.194;7.690;2023-05-07T10:05:19;22.40;99.90
18450;DHT22;9354;50.194;7.690;2023-05-07T10:07:47;22.50;99.90
18450;DHT22;9354;50.194;7.690;2023-05-07T10:10:15;22.60;99.90
18450;DHT22;9354;50.194;7.690;2023-05-07T10:12:43;22.70;99.90
18450;DHT22;9354;50.194;7.690;2023-05-07T10:15:11;22.60;99.90
18450;DHT22;9354;50.194;7.690;2023-05-07T10:17:41;22.60;99.90
18450;DHT22;9354;50.194;7.690;2023-05-07T10:20:09;22.70;99.90
18450;DHT22;9354;50.194;7.690;2023-05-07T10:22:38;22.60;99.90
18450;DHT22;9354;50.194;7.690;2023-05-07T10:25:12;22.40;99.90
18450;DHT22;9354;50.194;7.690;2023-05-07T10:27:42;22.30;99.90
18450;DHT22;9354;50.194;7.690;2023-05-07T10:30:17;22.40;99.90
18450;DHT22;9354;50.194;7.690;2023-05-07T10:32:55;22.50;99.90
18450;DHT22;9354;50.194;7.690;2023-05-07T10:35:27;22.70;99.90
18450;DHT22;9354;50.194;7.690;2023-05-07T10:37:57;22.80;99.90
18450;DHT22;9354;50.194;7.690;2023-05-07T10:40:25;23.00;99.90
18450;DHT22;9354;50.194;7.690;2023-05-07T10:42:56;23.10;99.90
18450;DHT22;9354;50.194;7.690;2023-05-07T10:45:24;23.20;99.90
18450;DHT22;9354;50.194;7.690;2023-05-07T10:48:10;23.20;99.90
18450;DHT22;9354;50.194;7.690;2023-05-07T10:50:38;23.30;99.90
18450;DHT22;9354;50.194;7.690;2023-05-07T10:53:25;23.30;99.90
18450;DHT22;9354;50.194;7.690;2023-05-07T10:56:25;23.30;99.90
18450;DHT22;9354;50.194;7.690;2023-05-07T10:58:56;23.20;99.90
18450;DHT22;9354;50.194;7.690;2023-05-07T11:01:50;22.80;99.90
18450;DHT22;9354;50.194;7.690;2023-05-07T11:04:20;22.60;99.90
18450;DHT22;9354;50.194;7.690;2023-05-07T11:10:00;22.50;99.90
18450;DHT22;9354;50.194;7.690;2023-05-07T11:12:52;22.50;99.90
18450;DHT22;9354;50.194;7.690;2023-05-07T11:15:39;22.60;99.90
18450;DHT22;9354;50.194;7.690;2023-05-07T11:18:07;22.60;99.90
18450;DHT22;9354;50.194;7.690;2023-05-07T11:20:56;22.70;99.90
18450;DHT22;9354;50.194;7.690;2023-05-07T11:26:44;23.00;99.90
18450;DHT22;9354;50.194;7.690;2023-05-07T11:29:13;23.00;99.90
18450;DHT22;9354;50.194;7.690;2023-05-07T11:31:41;23.00;99.90
18450;DHT22;9354;50.194;7.690;2023-05-07T11:34:08;23.00;99.90
18450;DHT22;9354;50.194;7.690;2023-05-07T11:36:42;23.00;99.90
18450;DHT22;9354;50.194;7.690;2023-05-07T11:39:26;23.10;99.90
18450;DHT22;9354;50.194;7.690;2023-05-07T11:41:54;23.40;99.90
18450;DHT22;9354;50.194;7.690;2023-05-07T11:44:21;23.60;99.90
18450;DHT22;9354;50.194;7.690;2023-05-07T11:46:49;23.80;99.90
18450;DHT22;9354;50.194;7.690;2023-05-07T11:49:17;23.80;99.90
18450;DHT22;9354;50.194;7.690;2023-05-07T11:51:46;23.60;99.90
18450;DHT22;9354;50.194;7.690;2023-05-07T11:54:16;23.20;99.90
18450;DHT22;9354;50.194;7.690;2023-05-07T11:56:44;23.00;99.90
18450;DHT22;9354;50.194;7.690;2023-05-07T11:59:17;23.00;99.90
18450;DHT22;9354;50.194;7.690;2023-05-07T12:01:46;22.90;99.90
18450;DHT22;9354;50.194;7.690;2023-05-07T12:04:18;22.90;99.90
18450;DHT22;9354;50.194;7.690;2023-05-07T12:06:47;22.90;99.90
18450;DHT22;9354;50.194;7.690;2023-05-07T12:09:17;23.00;99.90
18450;DHT22;9354;50.194;7.690;2023-05-07T12:11:46;23.10;99.90
18450;DHT22;9354;50.194;7.690;2023-05-07T12:14:13;23.10;99.90
18450;DHT22;9354;50.194;7.690;2023-05-07T12:16:42;23.20;99.90
18450;DHT22;9354;50.194;7.690;2023-05-07T12:19:11;23.30;99.90
18450;DHT22;9354;50.194;7.690;2023-05-07T12:21:39;23.30;99.90
18450;DHT22;9354;50.194;7.690;2023-05-07T12:24:09;23.30;99.90
18450;DHT22;9354;50.194;7.690;2023-05-07T12:26:38;23.40;99.90
18450;DHT22;9354;50.194;7.690;2023-05-07T12:29:06;23.40;99.90
18450;DHT22;9354;50.194;7.690;2023-05-07T12:31:34;23.40;99.90
18450;DHT22;9354;50.194;7.690;2023-05-07T12:34:02;23.50;99.90
18450;DHT22;9354;50.194;7.690;2023-05-07T12:36:36;23.40;99.90
18450;DHT22;9354;50.194;7.690;2023-05-07T12:39:04;23.50;99.90
18450;DHT22;9354;50.194;7.690;2023-05-07T12:41:52;23.50;99.90
18450;DHT22;9354;50.194;7.690;2023-05-07T12:44:22;23.70;99.90
18450;DHT22;9354;50.194;7.690;2023-05-07T12:46:50;23.80;99.90
18450;DHT22;9354;50.194;7.690;2023-05-07T12:49:18;24.00;99.90
18450;DHT22;9354;50.194;7.690;2023-05-07T12:51:46;24.10;99.90
18450;DHT22;9354;50.194;7.690;2023-05-07T12:54:27;23.50;99.90
18450;DHT22;9354;50.194;7.690;2023-05-07T12:57:02;23.70;99.90
18450;DHT22;9354;50.194;7.690;2023-05-07T12:59:33;23.30;99.90
18450;DHT22;9354;50.194;7.690;2023-05-07T13:02:01;23.20;99.90
18450;DHT22;9354;50.194;7.690;2023-05-07T13:04:28;23.00;99.90
18450;DHT22;9354;50.194;7.690;2023-05-07T13:06:56;22.90;99.90
18450;DHT22;9354;50.194;7.690;2023-05-07T13:09:23;22.80;99.90
18450;DHT22;9354;50.194;7.690;2023-05-07T13:11:51;22.60;99.90
18450;DHT22;9354;50.194;7.690;2023-05-07T13:14:19;22.40;99.90
18450;DHT22;9354;50.194;7.690;2023-05-07T13:16:47;22.30;99.90
18450;DHT22;9354;50.194;7.690;2023-05-07T13:19:15;22.20;99.90
18450;DHT22;9354;50.194;7.690;2023-05-07T13:21:43;22.30;99.90
18450;DHT22;9354;50.194;7.690;2023-05-07T13:24:10;22.30;99.90
18450;DHT22;9354;50.194;7.690;2023-05-07T13:26:38;22.40;99.90
18450;DHT22;9354;50.194;7.690;2023-05-07T13:29:05;22.60;99.90
18450;DHT22;9354;50.194;7.690;2023-05-07T13:31:34;23.00;99.90
18450;DHT22;9354;50.194;7.690;2023-05-07T13:34:01;23.30;99.90
18450;DHT22;9354;50.194;7.690;2023-05-07T13:36:29;23.40;99.90
18450;DHT22;9354;50.194;7.690;2023-05-07T13:38:58;23.50;99.90
18450;DHT22;9354;50.194;7.690;2023-05-07T13:41:26;23.70;99.90
18450;DHT22;9354;50.194;7.690;2023-05-07T13:43:53;23.80;99.90
18450;DHT22;9354;50.194;7.690;2023-05-07T13:46:21;23.80;99.90
18450;DHT22;9354;50.194;7.690;2023-05-07T13:48:50;23.80;99.90
18450;DHT22;9354;50.194;7.690;2023-05-07T13:51:17;24.00;99.90
18450;DHT22;9354;50.194;7.690;2023-05-07T13:53:45;23.90;99.90
18450;DHT22;9354;50.194;7.690;2023-05-07T13:56:12;24.10;99.90
18450;DHT22;9354;50.194;7.690;2023-05-07T13:58:40;24.30;99.90
18450;DHT22;9354;50.194;7.690;2023-05-07T14:01:07;24.30;99.90
18450;DHT22;9354;50.194;7.690;2023-05-07T14:03:35;24.50;99.90
18450;DHT22;9354;50.194;7.690;2023-05-07T14:06:05;24.50;99.90
18450;DHT22;9354;50.194;7.690;2023-05-07T14:08:32;24.50;99.90
18450;DHT22;9354;50.194;7.690;2023-05-07T14:11:00;24.30;99.90
18450;DHT22;9354;50.194;7.690;2023-05-07T14:13:27;24.10;99.90
18450;DHT22;9354;50.194;7.690;2023-05-07T14:15:56;24.00;99.90
18450;DHT22;9354;50.194;7.690;2023-05-07T14:18:24;23.80;99.90
18450;DHT22;9354;50.194;7.690;2023-05-07T14:20:51;23.90;99.90
18450;DHT22;9354;50.194;7.690;2023-05-07T14:23:20;23.80;99.90
18450;DHT22;9354;50.194;7.690;2023-05-07T14:25:52;24.00;99.90
18450;DHT22;9354;50.194;7.690;2023-05-07T14:28:20;24.00;99.90
18450;DHT22;9354;50.194;7.690;2023-05-07T14:30:47;24.00;99.90
18450;DHT22;9354;50.194;7.690;2023-05-07T14:33:15;24.00;99.90
18450;DHT22;9354;50.194;7.690;2023-05-07T14:35:42;24.00;99.90
18450;DHT22;9354;50.194;7.690;2023-05-07T14:38:14;24.10;99.90
18450;DHT22;9354;50.194;7.690;2023-05-07T14:40:42;24.10;99.90
18450;DHT22;9354;50.194;7.690;2023-05-07T14:43:10;23.90;99.90
18450;DHT22;9354;50.194;7.690;2023-05-07T14:45:37;23.80;99.90
18450;DHT22;9354;50.194;7.690;2023-05-07T14:48:05;23.60;99.90
18450;DHT22;9354;50.194;7.690;2023-05-07T14:50:32;23.50;99.90
18450;DHT22;9354;50.194;7.690;2023-05-07T14:52:59;23.40;99.90
18450;DHT22;9354;50.194;7.690;2023-05-07T14:55:27;23.40;99.90
18450;DHT22;9354;50.194;7.690;2023-05-07T14:57:56;23.40;99.90
18450;DHT22;9354;50.194;7.690;2023-05-07T15:00:23;23.40;99.90
18450;DHT22;9354;50.194;7.690;2023-05-07T15:02:50;23.30;99.90
18450;DHT22;9354;50.194;7.690;2023-05-07T15:05:18;23.10;99.90
18450;DHT22;9354;50.194;7.690;2023-05-07T15:07:45;23.00;99.90
18450;DHT22;9354;50.194;7.690;2023-05-07T15:10:13;22.70;99.90
18450;DHT22;9354;50.194;7.690;2023-05-07T15:12:40;22.60;99.90
18450;DHT22;9354;50.194;7.690;2023-05-07T15:15:10;22.50;99.90
18450;DHT22;9354;50.194;7.690;2023-05-07T15:17:37;22.40;99.90
18450;DHT22;9354;50.194;7.690;2023-05-07T15:20:06;22.40;99.90
18450;DHT22;9354;50.194;7.690;2023-05-07T15:22:34;22.40;99.90
18450;DHT22;9354;50.194;7.690;2023-05-07T15:25:03;22.40;99.90
18450;DHT22;9354;50.194;7.690;2023-05-07T15:27:31;22.30;99.90
18450;DHT22;9354;50.194;7.690;2023-05-07T15:29:59;22.20;99.90
18450;DHT22;9354;50.194;7.690;2023-05-07T15:32:27;22.00;99.90
18450;DHT22;9354;50.194;7.690;2023-05-07T15:34:55;21.90;99.90
18450;DHT22;9354;50.194;7.690;2023-05-07T15:37:23;21.90;99.90
18450;DHT22;9354;50.194;7.690;2023-05-07T15:39:50;21.80;99.90
18450;DHT22;9354;50.194;7.690;2023-05-07T15:42:17;21.80;99.90
18450;DHT22;9354;50.194;7.690;2023-05-07T15:44:46;21.70;99.90
18450;DHT22;9354;50.194;7.690;2023-05-07T15:47:14;21.70;99.90
18450;DHT22;9354;50.194;7.690;2023-05-07T15:49:43;21.70;99.90
18450;DHT22;9354;50.194;7.690;2023-05-07T15:52:10;21.50;99.90
18450;DHT22;9354;50.194;7.690;2023-05-07T15:54:39;21.40;99.90
18450;DHT22;9354;50.194;7.690;2023-05-07T15:57:07;21.30;99.90
18450;DHT22;9354;50.194;7.690;2023-05-07T15:59:35;21.20;99.90